Time;durP1;ratioP1;P1;durP2;ratioP2;P2;SDS_P1;SDS_P2;PMS_P1;PMS_P2;Temp;Humidity;BMP_temperature;BMP_pressure;BME280_temperature;BME280_humidity;BME280_pressure;Samples;Min_cycle;Max_cycle;Signal;HPM_P1;HPM_P2
2023/10/20 00:02:15;;;;;;;10.63;9.73;;;13.30;99.90;;;;;;4940294;29;20591;-78
2023/10/20 00:04:41;;;;;;;11.03;10.23;;;13.30;99.90;;;;;;4948128;29;20235;-78
2023/10/20 00:07:08;;;;;;;11.70;10.70;;;13.30;99.90;;;;;;4944123;29;20230;-78
2023/10/20 00:09:35;;;;;;;10.73;9.83;;;13.30;99.90;;;;;;4947037;29;20203;-78
2023/10/20 00:12:04;;;;;;;10.90;10.00;;;13.30;99.90;;;;;;4926255;29;20203;-78
2023/10/20 00:14:31;;;;;;;11.87;10.97;;;13.30;99.90;;;;;;4951060;29;20194;-78
2023/10/20 00:16:59;;;;;;;11.03;10.03;;;13.30;99.90;;;;;;5009368;23;20238;-79
2023/10/20 00:19:26;;;;;;;9.23;8.40;;;13.30;99.90;;;;;;4948826;28;20673;-78
2023/10/20 00:21:53;;;;;;;11.47;10.57;;;13.30;99.90;;;;;;4955269;28;20289;-78
2023/10/20 00:24:21;;;;;;;9.20;8.33;;;13.30;99.90;;;;;;4944732;28;20216;-78
2023/10/20 00:26:48;;;;;;;9.73;8.80;;;13.30;99.90;;;;;;4938430;29;20314;-79
2023/10/20 00:29:14;;;;;;;9.80;8.87;;;13.30;99.90;;;;;;4948011;29;20199;-79
2023/10/20 00:31:42;;;;;;;9.83;8.83;;;13.30;99.90;;;;;;4926991;29;20251;-78
2023/10/20 00:34:10;;;;;;;8.57;7.77;;;13.30;99.90;;;;;;4930370;29;20223;-78
2023/10/20 00:36:37;;;;;;;8.23;7.43;;;13.30;99.90;;;;;;4940857;29;20253;-78
2023/10/20 00:39:04;;;;;;;8.73;7.93;;;13.30;99.90;;;;;;4931847;29;20202;-78
2023/10/20 00:41:34;;;;;;;9.67;8.77;;;13.30;99.90;;;;;;4926563;29;20238;-78
2023/10/20 00:44:01;;;;;;;10.53;9.67;;;13.30;99.90;;;;;;4929536;29;20258;-79
2023/10/20 00:46:28;;;;;;;11.93;10.93;;;13.30;99.90;;;;;;4925366;29;20291;-79
2023/10/20 00:48:56;;;;;;;11.23;10.33;;;13.30;99.90;;;;;;4927641;29;20207;-78
2023/10/20 00:51:25;;;;;;;10.40;9.60;;;13.30;99.90;;;;;;4936022;29;20209;-78
2023/10/20 00:53:52;;;;;;;11.07;10.07;;;13.30;99.90;;;;;;4927578;29;20348;-79
2023/10/20 00:56:19;;;;;;;11.07;10.07;;;13.30;99.90;;;;;;4928401;29;20226;-78
2023/10/20 00:58:47;;;;;;;11.87;10.93;;;13.30;99.90;;;;;;4925508;29;20248;-78
2023/10/20 01:01:14;;;;;;;8.73;7.93;;;13.30;99.90;;;;;;4928034;29;20249;-78
2023/10/20 01:03:41;;;;;;;10.10;9.20;;;13.30;99.90;;;;;;4921823;29;20221;-78
2023/10/20 01:06:08;;;;;;;9.80;9.00;;;13.20;99.90;;;;;;4929665;29;20226;-79
2023/10/20 01:08:36;;;;;;;9.07;8.27;;;13.20;99.90;;;;;;4928018;29;20226;-79
2023/10/20 01:11:03;;;;;;;9.07;8.27;;;13.30;99.90;;;;;;4928226;29;20223;-79
2023/10/20 01:13:30;;;;;;;11.33;10.33;;;13.20;99.90;;;;;;4928958;29;20206;-79
2023/10/20 01:15:57;;;;;;;9.17;8.37;;;13.20;99.90;;;;;;4945562;29;20234;-79
2023/10/20 01:18:24;;;;;;;9.87;8.97;;;13.20;99.90;;;;;;4928320;29;20191;-78
2023/10/20 01:20:51;;;;;;;9.60;8.70;;;13.20;99.90;;;;;;4927222;29;20206;-78
2023/10/20 01:23:18;;;;;;;9.80;8.80;;;13.20;99.90;;;;;;4925417;29;20203;-79
2023/10/20 01:25:46;;;;;;;11.90;11.00;;;13.20;99.90;;;;;;4929125;29;20250;-78
2023/10/20 01:28:13;;;;;;;11.20;10.30;;;13.20;99.90;;;;;;4929344;29;20702;-79
2023/10/20 01:30:40;;;;;;;10.43;9.43;;;13.20;99.90;;;;;;4946102;28;20227;-78
2023/10/20 01:33:07;;;;;;;11.83;10.83;;;13.20;99.90;;;;;;4926477;29;20701;-79
2023/10/20 01:35:34;;;;;;;8.43;7.63;;;13.20;99.90;;;;;;4931152;29;20587;-79
2023/10/20 01:38:01;;;;;;;8.63;7.83;;;13.10;99.90;;;;;;4932523;29;20202;-78
2023/10/20 01:40:30;;;;;;;9.73;8.93;;;13.20;99.90;;;;;;4925760;29;20254;-79
2023/10/20 01:42:59;;;;;;;8.70;7.90;;;13.10;99.90;;;;;;4928490;29;20214;-79
2023/10/20 01:45:25;;;;;;;7.60;7.00;;;13.20;99.90;;;;;;4941267;29;20569;-79
2023/10/20 01:47:52;;;;;;;9.67;8.77;;;13.20;99.90;;;;;;4943754;29;20219;-78
2023/10/20 01:50:20;;;;;;;9.70;8.83;;;13.10;99.90;;;;;;4928577;29;20648;-78
2023/10/20 01:52:47;;;;;;;8.77;7.97;;;13.10;99.90;;;;;;4936956;29;20207;-79
2023/10/20 01:55:14;;;;;;;10.23;9.20;;;13.10;99.90;;;;;;4925790;29;20203;-79
2023/10/20 01:57:41;;;;;;;11.03;10.13;;;13.10;99.90;;;;;;4925879;29;20228;-79
2023/10/20 02:00:13;;;;;;;11.57;10.67;;;13.10;99.90;;;;;;4925415;29;20622;-79
2023/10/20 02:02:42;;;;;;;8.90;8.10;;;13.10;99.90;;;;;;4926343;29;20206;-78
2023/10/20 02:05:09;;;;;;;7.63;6.93;;;13.10;99.90;;;;;;4927114;29;20206;-78
2023/10/20 02:07:36;;;;;;;7.60;7.00;;;13.10;99.90;;;;;;4929725;29;20230;-79
2023/10/20 02:10:03;;;;;;;8.83;8.03;;;13.10;99.90;;;;;;4929973;29;20206;-79
2023/10/20 02:12:30;;;;;;;10.33;9.47;;;13.10;99.90;;;;;;4930444;29;20561;-77
2023/10/20 02:14:57;;;;;;;10.73;9.27;;;13.10;99.90;;;;;;4926538;29;20218;-78
2023/10/20 02:17:25;;;;;;;12.93;11.83;;;13.10;99.90;;;;;;4927257;29;20281;-79
2023/10/20 02:19:52;;;;;;;9.40;8.60;;;13.00;99.90;;;;;;4930473;29;20742;-78
2023/10/20 02:22:19;;;;;;;9.13;8.33;;;13.00;99.90;;;;;;4925796;29;20203;-79
2023/10/20 02:24:46;;;;;;;9.57;8.77;;;13.00;99.90;;;;;;4935133;29;20244;-79
2023/10/20 02:27:13;;;;;;;9.23;8.43;;;13.00;99.90;;;;;;4952950;29;20292;-78
2023/10/20 02:29:41;;;;;;;10.40;9.50;;;13.00;99.90;;;;;;4933149;29;20261;-78
2023/10/20 02:32:09;;;;;;;9.00;8.20;;;13.00;99.90;;;;;;4929636;29;20214;-78
2023/10/20 02:34:37;;;;;;;8.80;8.10;;;13.00;99.90;;;;;;4954630;29;20209;-79
2023/10/20 02:37:04;;;;;;;10.37;9.47;;;13.00;99.90;;;;;;4938274;29;20222;-78
2023/10/20 02:39:31;;;;;;;8.60;7.80;;;13.00;99.90;;;;;;4927400;29;20654;-78
2023/10/20 02:41:58;;;;;;;9.93;9.03;;;13.00;99.90;;;;;;4931849;29;20206;-82
2023/10/20 02:44:27;;;;;;;10.37;9.57;;;13.00;99.90;;;;;;4932484;29;20200;-78
2023/10/20 02:46:54;;;;;;;12.53;11.70;;;13.00;99.90;;;;;;4932540;29;20223;-78
2023/10/20 02:49:21;;;;;;;10.33;9.53;;;13.10;99.90;;;;;;4928601;29;20306;-78
2023/10/20 02:52:00;;;;;;;12.70;11.60;;;13.10;99.90;;;;;;4960929;29;20205;-82
2023/10/20 02:54:35;;;;;;;12.33;11.30;;;13.00;99.90;;;;;;4931110;29;20243;-80
2023/10/20 02:57:26;;;;;;;14.07;13.07;;;13.00;99.90;;;;;;4924379;29;20215;-80
2023/10/20 03:00:01;;;;;;;10.77;9.67;;;13.00;99.90;;;;;;4937222;29;20209;-80
2023/10/20 03:02:34;;;;;;;10.83;9.73;;;13.00;99.90;;;;;;4956627;29;20557;-80
2023/10/20 03:05:07;;;;;;;12.77;11.83;;;13.00;99.90;;;;;;4940197;29;20237;-81
2023/10/20 03:08:12;;;;;;;14.53;13.43;;;13.00;99.90;;;;;;4957516;28;20214;-80
2023/10/20 03:10:58;;;;;;;10.00;9.10;;;13.00;99.90;;;;;;4937500;29;20244;-81
2023/10/20 03:13:51;;;;;;;8.73;7.97;;;13.00;99.90;;;;;;4956153;29;20224;-80
2023/10/20 03:19:31;;;;;;;16.77;15.67;;;13.00;99.90;;;;;;4948855;29;20657;-81
2023/10/20 03:22:27;;;;;;;17.20;16.00;;;13.00;99.90;;;;;;4936380;29;20214;-80
2023/10/20 03:25:06;;;;;;;12.13;11.10;;;13.00;99.90;;;;;;4942164;28;20293;-80
2023/10/20 03:27:33;;;;;;;11.73;10.83;;;13.00;99.90;;;;;;4930019;29;20432;-81
2023/10/20 03:30:00;;;;;;;12.73;11.83;;;13.00;99.90;;;;;;4949933;29;20202;-79
2023/10/20 03:32:26;;;;;;;20.27;18.73;;;13.00;99.90;;;;;;4947607;29;20214;-78
2023/10/20 03:34:53;;;;;;;15.17;14.10;;;13.00;99.90;;;;;;4944530;29;20208;-78
2023/10/20 03:37:20;;;;;;;10.00;9.10;;;13.00;99.90;;;;;;4940024;29;20321;-80
2023/10/20 03:40:13;;;;;;;8.73;7.93;;;13.00;99.90;;;;;;4954868;29;20199;-80
2023/10/20 03:43:19;;;;;;;13.00;12.00;;;13.00;99.90;;;;;;4948970;29;20203;-81
2023/10/20 03:48:37;;;;;;;9.30;8.43;;;13.00;99.90;;;;;;5266207;23;20289;-81
2023/10/20 03:51:11;;;;;;;11.00;10.10;;;12.90;99.90;;;;;;4955237;28;20283;-81
2023/10/20 03:54:08;;;;;;;10.93;10.00;;;12.90;99.90;;;;;;4958189;28;20205;-81
2023/10/20 04:00:17;;;;;;;9.10;8.20;;;12.90;99.90;;;;;;4950783;29;20180;-78
2023/10/20 04:02:47;;;;;;;15.53;14.40;;;12.80;99.90;;;;;;4950780;29;20225;-78
2023/10/20 04:05:16;;;;;;;15.70;14.47;;;12.80;99.90;;;;;;4944211;29;20209;-78
2023/10/20 04:07:43;;;;;;;16.70;15.40;;;12.80;99.90;;;;;;4927650;29;20230;-78
2023/10/20 04:10:10;;;;;;;13.93;12.53;;;12.80;99.90;;;;;;4938532;29;20201;-77
2023/10/20 04:12:39;;;;;;;13.63;12.53;;;12.80;99.90;;;;;;4925080;29;20589;-77
2023/10/20 04:15:08;;;;;;;13.47;12.37;;;12.80;99.90;;;;;;4937442;29;20238;-77
2023/10/20 04:17:38;;;;;;;11.83;10.63;;;12.80;99.90;;;;;;4925821;29;20229;-77
2023/10/20 04:20:15;;;;;;;11.63;10.63;;;12.80;99.90;;;;;;4920571;29;20637;-77
2023/10/20 04:22:44;;;;;;;11.13;10.03;;;12.80;99.90;;;;;;4921342;29;20709;-77
2023/10/20 04:25:15;;;;;;;12.37;10.83;;;12.80;99.90;;;;;;4928834;29;20196;-77
2023/10/20 04:27:48;;;;;;;14.20;13.00;;;12.80;99.90;;;;;;4920368;29;20611;-77
2023/10/20 04:47:36;;;;;;;15.40;13.90;;;12.70;99.90;;;;;;4922418;29;20234;-77
2023/10/20 04:50:17;;;;;;;11.83;10.83;;;12.70;99.90;;;;;;4930351;29;20229;-77
2023/10/20 04:53:12;;;;;;;12.67;11.63;;;12.70;99.90;;;;;;4924187;29;20223;-77
2023/10/20 04:58:43;;;;;;;12.83;11.73;;;12.70;99.90;;;;;;4918870;29;20305;-77
2023/10/20 05:01:19;;;;;;;11.13;10.13;;;12.70;99.90;;;;;;4921225;29;20211;-77
2023/10/20 05:03:46;;;;;;;12.53;11.33;;;12.70;99.90;;;;;;4924088;29;20203;-78
2023/10/20 05:06:26;;;;;;;14.87;13.60;;;12.70;99.90;;;;;;4931379;29;20237;-78
2023/10/20 05:08:54;;;;;;;14.83;13.67;;;12.70;99.90;;;;;;4920951;29;20257;-77
2023/10/20 05:11:22;;;;;;;12.33;11.13;;;12.70;99.90;;;;;;4923360;29;20564;-78
2023/10/20 05:13:49;;;;;;;13.17;11.83;;;12.70;99.90;;;;;;4923137;29;20230;-78
2023/10/20 05:16:16;;;;;;;13.70;12.50;;;12.60;99.90;;;;;;4919471;29;20737;-78
2023/10/20 05:18:44;;;;;;;13.10;11.80;;;12.60;99.90;;;;;;4928359;29;20199;-77
2023/10/20 05:21:12;;;;;;;13.17;11.97;;;12.60;99.90;;;;;;4922879;29;20217;-78
2023/10/20 05:23:39;;;;;;;15.13;13.53;;;12.60;99.90;;;;;;4921538;29;20270;-77
2023/10/20 05:26:06;;;;;;;14.30;13.00;;;12.60;99.90;;;;;;4926368;29;20266;-78
2023/10/20 05:28:34;;;;;;;15.50;14.00;;;12.60;99.90;;;;;;4923021;29;20232;-77
2023/10/20 05:31:01;;;;;;;13.07;11.87;;;12.60;99.90;;;;;;4921040;29;20258;-77
2023/10/20 05:33:27;;;;;;;11.67;10.57;;;12.60;99.90;;;;;;4923728;29;20207;-77
2023/10/20 05:36:00;;;;;;;13.77;12.37;;;12.60;99.90;;;;;;4919606;29;20283;-77
2023/10/20 05:38:27;;;;;;;15.67;14.17;;;12.60;99.90;;;;;;4923426;29;20259;-77
2023/10/20 05:40:58;;;;;;;17.73;16.13;;;12.60;99.90;;;;;;4930407;29;20692;-77
2023/10/20 05:43:25;;;;;;;25.13;23.23;;;12.60;99.90;;;;;;4923574;29;20233;-79
2023/10/20 05:45:53;;;;;;;17.80;16.10;;;12.50;99.90;;;;;;4928876;29;20682;-78
2023/10/20 05:48:20;;;;;;;14.03;12.60;;;12.50;99.90;;;;;;4921762;29;20592;-80
2023/10/20 05:50:47;;;;;;;17.90;16.37;;;12.50;99.90;;;;;;4926984;29;20210;-80
2023/10/20 05:53:14;;;;;;;17.10;15.30;;;12.50;99.90;;;;;;4926923;29;20280;-80
2023/10/20 05:55:41;;;;;;;21.30;19.33;;;12.50;99.90;;;;;;4926676;29;20574;-78
2023/10/20 05:58:08;;;;;;;23.87;21.67;;;12.50;99.90;;;;;;4926119;29;20218;-80
2023/10/20 06:00:36;;;;;;;20.33;18.43;;;12.40;99.90;;;;;;4935086;29;20229;-77
2023/10/20 06:03:06;;;;;;;17.23;15.63;;;12.50;99.90;;;;;;4940080;29;20210;-77
2023/10/20 06:05:33;;;;;;;19.37;17.17;;;12.40;99.90;;;;;;4943363;29;20657;-78
2023/10/20 06:08:00;;;;;;;18.77;16.90;;;12.40;99.90;;;;;;4926042;29;20220;-77
2023/10/20 06:10:27;;;;;;;19.63;17.70;;;12.30;99.90;;;;;;4933092;29;20295;-77
2023/10/20 06:12:55;;;;;;;28.83;25.90;;;12.40;99.90;;;;;;4941758;29;20233;-78
2023/10/20 06:15:23;;;;;;;30.93;28.23;;;12.40;99.90;;;;;;4936540;29;20202;-80
2023/10/20 06:17:51;;;;;;;28.90;26.60;;;12.30;99.90;;;;;;4937625;29;20658;-77
2023/10/20 06:20:19;;;;;;;23.97;21.73;;;12.30;99.90;;;;;;4938046;29;20194;-77
2023/10/20 06:22:45;;;;;;;19.97;17.97;;;12.30;99.90;;;;;;4940490;29;20205;-77
2023/10/20 06:25:13;;;;;;;19.67;17.47;;;12.30;99.90;;;;;;4941619;29;20683;-76
2023/10/20 06:27:43;;;;;;;21.20;18.80;;;12.30;99.90;;;;;;4932927;29;20228;-78
2023/10/20 06:30:21;;;;;;;18.47;16.67;;;12.30;99.90;;;;;;4935097;29;20653;-77
2023/10/20 06:32:56;;;;;;;24.27;21.53;;;12.40;99.90;;;;;;4936767;29;20199;-77
2023/10/20 06:35:32;;;;;;;19.80;17.73;;;12.40;99.90;;;;;;4939125;29;20201;-77
2023/10/20 06:38:11;;;;;;;22.57;18.83;;;12.40;99.90;;;;;;4939856;29;20209;-81
2023/10/20 06:40:40;;;;;;;20.83;18.53;;;12.50;99.90;;;;;;4934275;29;20197;-77
2023/10/20 06:43:07;;;;;;;18.63;16.73;;;12.40;99.90;;;;;;4935302;29;20202;-78
2023/10/20 06:45:34;;;;;;;23.43;21.37;;;12.40;99.90;;;;;;4940589;29;20214;-77
2023/10/20 06:48:01;;;;;;;19.00;17.20;;;12.40;99.90;;;;;;4939558;29;20270;-78
2023/10/20 06:50:29;;;;;;;18.43;16.53;;;12.50;99.90;;;;;;4941472;29;20222;-78
2023/10/20 06:52:56;;;;;;;22.40;20.47;;;12.50;99.90;;;;;;4940214;29;20595;-78
2023/10/20 06:55:24;;;;;;;20.30;18.30;;;12.50;99.90;;;;;;4940587;29;20208;-78
2023/10/20 06:57:51;;;;;;;18.83;15.83;;;12.50;99.90;;;;;;4934692;29;20230;-78
2023/10/20 07:00:20;;;;;;;17.37;15.47;;;12.50;99.90;;;;;;4939665;29;20201;-79
2023/10/20 07:02:48;;;;;;;15.23;13.73;;;12.60;99.90;;;;;;4933554;29;20198;-77
2023/10/20 07:05:17;;;;;;;15.77;14.17;;;12.60;99.90;;;;;;4940189;29;20208;-78
2023/10/20 07:07:45;;;;;;;14.00;12.70;;;12.70;99.90;;;;;;4933320;29;20249;-77
2023/10/20 07:10:12;;;;;;;14.07;12.60;;;12.80;99.90;;;;;;4933001;29;20217;-77
2023/10/20 07:12:38;;;;;;;13.97;12.57;;;12.80;99.90;;;;;;4933869;29;20674;-76
2023/10/20 07:15:06;;;;;;;13.63;12.23;;;12.90;99.90;;;;;;4928049;29;20670;-77
2023/10/20 07:17:34;;;;;;;12.67;11.37;;;12.90;99.90;;;;;;4927627;29;20222;-77
2023/10/20 07:20:04;;;;;;;14.17;12.60;;;12.90;99.90;;;;;;4933243;29;20216;-76
2023/10/20 07:22:31;;;;;;;13.97;12.57;;;12.90;99.90;;;;;;4925522;29;20681;-77
2023/10/20 07:24:59;;;;;;;13.23;11.83;;;12.90;99.90;;;;;;4935873;29;20197;-77
2023/10/20 07:27:26;;;;;;;13.57;12.10;;;12.90;99.90;;;;;;4927487;29;20307;-79
2023/10/20 07:29:53;;;;;;;13.60;12.30;;;13.00;99.90;;;;;;4920736;29;20282;-77
2023/10/20 07:32:21;;;;;;;12.67;11.37;;;13.00;99.90;;;;;;4934588;29;20213;-77
2023/10/20 07:34:47;;;;;;;12.60;11.40;;;13.00;99.90;;;;;;4925557;29;20209;-77
2023/10/20 07:37:14;;;;;;;11.83;10.73;;;13.10;99.90;;;;;;4935172;29;20737;-77
2023/10/20 07:39:41;;;;;;;12.43;11.13;;;13.10;99.90;;;;;;4932773;29;20231;-77
2023/10/20 07:42:10;;;;;;;13.20;11.80;;;13.20;99.90;;;;;;4924344;29;20234;-77
2023/10/20 07:44:36;;;;;;;13.03;11.83;;;13.30;99.90;;;;;;4929697;29;20285;-77
2023/10/20 07:47:03;;;;;;;13.30;11.97;;;13.30;99.90;;;;;;4933742;29;20237;-77
2023/10/20 07:49:30;;;;;;;11.97;10.77;;;13.40;99.90;;;;;;4920714;29;20322;-76
2023/10/20 07:51:57;;;;;;;12.57;11.27;;;13.40;99.90;;;;;;4921522;29;20259;-77
2023/10/20 07:54:23;;;;;;;12.30;11.10;;;13.50;99.90;;;;;;4920549;29;20211;-77
2023/10/20 07:56:50;;;;;;;14.37;13.07;;;13.50;99.90;;;;;;4918548;29;20240;-77
2023/10/20 07:59:18;;;;;;;17.33;15.93;;;13.60;99.90;;;;;;4923068;29;20203;-76
2023/10/20 08:01:45;;;;;;;17.20;15.87;;;13.60;99.90;;;;;;4923573;29;20570;-77
2023/10/20 08:04:12;;;;;;;15.27;13.87;;;13.70;99.90;;;;;;4920707;29;20246;-77
2023/10/20 08:06:39;;;;;;;15.83;14.53;;;13.80;99.90;;;;;;4934167;29;20230;-76
2023/10/20 08:09:07;;;;;;;14.40;13.10;;;13.80;99.90;;;;;;4934358;29;20219;-77
2023/10/20 08:11:33;;;;;;;11.80;10.67;;;13.90;99.90;;;;;;4934873;29;20697;-77
2023/10/20 08:14:00;;;;;;;11.53;10.37;;;13.90;99.90;;;;;;4930618;29;20207;-82
2023/10/20 08:16:28;;;;;;;13.40;12.10;;;13.90;99.90;;;;;;4939033;29;20246;-82
2023/10/20 08:18:55;;;;;;;13.53;12.33;;;13.90;99.90;;;;;;4938314;29;20206;-76
2023/10/20 08:21:26;;;;;;;19.77;18.17;;;14.00;99.90;;;;;;4936350;29;20615;-81
2023/10/20 08:23:53;;;;;;;17.83;16.33;;;14.00;99.90;;;;;;4939209;29;20293;-81
2023/10/20 08:26:20;;;;;;;14.87;13.50;;;14.10;99.90;;;;;;4934753;29;20287;-79
2023/10/20 08:28:47;;;;;;;18.20;16.60;;;14.00;99.90;;;;;;4938034;29;21131;-81
2023/10/20 08:31:16;;;;;;;17.70;16.07;;;14.00;99.90;;;;;;4936988;29;20264;-80
2023/10/20 08:33:45;;;;;;;22.73;20.77;;;14.10;99.90;;;;;;4926892;29;20207;-81
2023/10/20 08:36:13;;;;;;;21.87;19.90;;;14.10;99.90;;;;;;4935380;29;20229;-81
2023/10/20 08:38:41;;;;;;;19.20;17.40;;;14.20;99.90;;;;;;4934303;29;20254;-81
2023/10/20 08:41:13;;;;;;;15.47;14.00;;;14.30;99.90;;;;;;4935165;29;20211;-81
2023/10/20 08:43:41;;;;;;;20.23;18.53;;;14.50;99.90;;;;;;4928242;29;20740;-81
2023/10/20 08:46:09;;;;;;;21.50;19.90;;;14.70;99.90;;;;;;4933252;29;20258;-81
2023/10/20 08:48:38;;;;;;;12.37;11.17;;;14.80;99.90;;;;;;4936937;29;20209;-80
2023/10/20 08:51:08;;;;;;;14.20;13.00;;;15.00;99.90;;;;;;4937941;29;20281;-81
2023/10/20 08:53:36;;;;;;;16.40;14.90;;;15.10;99.90;;;;;;4926738;29;20294;-81
2023/10/20 08:56:04;;;;;;;15.10;13.80;;;15.20;99.90;;;;;;4930092;29;20232;-82
2023/10/20 08:58:32;;;;;;;13.57;12.47;;;15.40;99.90;;;;;;4938709;29;20196;-81
2023/10/20 09:00:59;;;;;;;13.77;12.67;;;15.60;99.90;;;;;;4935591;29;20654;-81
2023/10/20 09:03:27;;;;;;;13.70;12.60;;;15.70;99.90;;;;;;4938479;29;20769;-81
2023/10/20 09:06:02;;;;;;;17.23;16.03;;;15.80;99.90;;;;;;4934469;29;20233;-81
2023/10/20 09:08:30;;;;;;;15.10;13.90;;;15.70;99.90;;;;;;4937123;29;20201;-81
2023/10/20 09:10:57;;;;;;;15.23;14.03;;;15.60;99.90;;;;;;4934901;29;20202;-81
2023/10/20 09:13:30;;;;;;;15.23;14.13;;;15.40;99.90;;;;;;4938294;29;20225;-82
2023/10/20 09:15:57;;;;;;;14.30;13.20;;;15.40;99.90;;;;;;4922581;29;20234;-81
2023/10/20 09:18:25;;;;;;;14.00;12.90;;;15.30;99.90;;;;;;4927192;29;20259;-81
2023/10/20 09:20:52;;;;;;;13.03;11.93;;;15.20;99.90;;;;;;4925943;29;20201;-81
2023/10/20 09:23:19;;;;;;;13.80;12.70;;;15.30;99.90;;;;;;4926427;29;20269;-82
2023/10/20 09:25:47;;;;;;;13.07;12.00;;;15.30;99.90;;;;;;4928702;29;20218;-81
2023/10/20 09:28:14;;;;;;;12.87;11.77;;;15.40;99.90;;;;;;4936317;29;20195;-83
2023/10/20 09:30:42;;;;;;;12.00;11.10;;;15.60;99.90;;;;;;4938743;29;20226;-81
2023/10/20 09:33:09;;;;;;;12.57;11.53;;;15.80;99.90;;;;;;4929915;29;20205;-79
2023/10/20 09:35:40;;;;;;;12.33;11.37;;;16.00;99.90;;;;;;4933298;28;20618;-78
2023/10/20 09:38:10;;;;;;;12.93;12.03;;;16.20;99.90;;;;;;4930615;29;20284;-78
2023/10/20 09:40:40;;;;;;;12.23;11.33;;;16.30;99.90;;;;;;4929216;29;20202;-78
2023/10/20 09:43:15;;;;;;;14.07;12.90;;;16.40;99.90;;;;;;4925951;29;20258;-78
2023/10/20 09:45:48;;;;;;;12.03;11.13;;;16.50;99.90;;;;;;4935606;29;20210;-78
2023/10/20 09:48:18;;;;;;;12.50;11.50;;;16.70;99.90;;;;;;4932209;29;20251;-78
2023/10/20 09:50:47;;;;;;;10.87;10.17;;;17.00;99.90;;;;;;4935926;29;20282;-79
2023/10/20 09:53:15;;;;;;;12.73;11.83;;;17.10;99.90;;;;;;4938179;29;20203;-78
2023/10/20 09:55:42;;;;;;;12.60;11.70;;;17.10;99.90;;;;;;4942921;29;20214;-79
2023/10/20 09:58:11;;;;;;;11.90;11.10;;;17.30;99.90;;;;;;4936594;29;20215;-78
2023/10/20 10:00:41;;;;;;;11.83;11.03;;;17.20;99.90;;;;;;4942598;29;20720;-78
2023/10/20 10:03:08;;;;;;;10.93;10.13;;;17.20;99.90;;;;;;4933292;29;20666;-78
2023/10/20 10:05:37;;;;;;;12.23;11.33;;;17.20;99.90;;;;;;4927267;29;20234;-78
2023/10/20 10:08:06;;;;;;;11.80;10.90;;;17.30;99.90;;;;;;4929410;29;20263;-78
2023/10/20 10:10:34;;;;;;;12.00;11.20;;;17.30;99.90;;;;;;4926875;29;20207;-78
2023/10/20 10:13:04;;;;;;;12.10;11.20;;;17.30;99.90;;;;;;4928744;29;20208;-82
2023/10/20 10:15:43;;;;;;;11.80;11.00;;;17.40;99.90;;;;;;4942322;29;20214;-81
2023/10/20 10:18:12;;;;;;;10.43;9.73;;;17.50;99.90;;;;;;4944626;29;20211;-82
2023/10/20 10:20:45;;;;;;;10.80;10.10;;;17.60;99.90;;;;;;4931439;29;20296;-78
2023/10/20 10:23:14;;;;;;;11.27;10.57;;;17.60;99.90;;;;;;4933480;29;20204;-81
2023/10/20 10:25:42;;;;;;;10.30;9.60;;;17.60;99.90;;;;;;4942253;29;20463;-81
2023/10/20 10:28:12;;;;;;;9.97;9.27;;;17.60;99.90;;;;;;4942104;29;20225;-78
2023/10/20 10:30:40;;;;;;;10.93;10.10;;;17.50;99.90;;;;;;4940983;29;20262;-78
2023/10/20 10:33:09;;;;;;;9.90;9.20;;;17.40;99.90;;;;;;4941138;29;20228;-78
2023/10/20 10:35:38;;;;;;;10.87;10.17;;;17.40;99.90;;;;;;4928155;29;20654;-78
2023/10/20 10:38:06;;;;;;;11.23;10.53;;;17.40;99.90;;;;;;4927938;29;20200;-77
2023/10/20 10:40:34;;;;;;;12.50;11.70;;;17.30;99.90;;;;;;4941268;29;20200;-78
2023/10/20 10:43:01;;;;;;;4.63;4.23;;;17.40;99.90;;;;;;4939602;29;20280;-78
2023/10/20 10:45:31;;;;;;;5.23;4.53;;;17.40;99.90;;;;;;4939092;29;20275;-80
2023/10/20 10:48:05;;;;;;;5.37;4.83;;;17.40;99.90;;;;;;4933900;29;20241;-80
2023/10/20 10:50:37;;;;;;;4.67;4.27;;;17.40;99.90;;;;;;4940357;29;20214;-82
2023/10/20 10:53:04;;;;;;;5.23;4.73;;;17.40;99.90;;;;;;4937713;29;20203;-79
2023/10/20 10:55:31;;;;;;;4.97;4.57;;;17.30;99.90;;;;;;4938871;29;20570;-79
2023/10/20 10:57:58;;;;;;;4.90;4.47;;;17.30;99.90;;;;;;4938354;29;20262;-79
2023/10/20 11:00:26;;;;;;;4.80;4.40;;;17.30;99.90;;;;;;4939566;29;20203;-78
2023/10/20 11:02:53;;;;;;;4.67;4.27;;;17.20;99.90;;;;;;4940345;29;20572;-79
2023/10/20 11:05:21;;;;;;;4.23;3.93;;;17.10;99.90;;;;;;4940382;29;20207;-79
2023/10/20 11:08:01;;;;;;;4.50;4.10;;;17.10;99.90;;;;;;4927372;29;20688;-79
2023/10/20 11:10:29;;;;;;;9.30;8.60;;;17.10;99.90;;;;;;4932664;29;20235;-80
2023/10/20 11:12:56;;;;;;;9.47;8.87;;;17.20;99.90;;;;;;4935268;29;20260;-81
2023/10/20 11:15:28;;;;;;;9.83;9.23;;;17.20;99.90;;;;;;4939607;29;20207;-80
2023/10/20 11:17:57;;;;;;;9.13;8.60;;;17.30;99.90;;;;;;4931134;29;20274;-78
2023/10/20 11:20:24;;;;;;;8.83;8.33;;;17.40;99.90;;;;;;4939017;29;20212;-78
2023/10/20 11:22:53;;;;;;;4.23;3.70;;;17.50;99.90;;;;;;4941376;29;20661;-79
2023/10/20 11:25:23;;;;;;;3.57;3.33;;;17.60;99.90;;;;;;4945204;29;20191;-79
2023/10/20 11:27:53;;;;;;;3.50;3.30;;;17.60;99.90;;;;;;4939661;29;20220;-80
2023/10/20 11:30:25;;;;;;;3.63;3.33;;;17.60;99.90;;;;;;4939060;29;20775;-80
2023/10/20 11:32:53;;;;;;;3.43;3.20;;;17.60;99.90;;;;;;4939816;29;20211;-79
2023/10/20 11:35:22;;;;;;;3.20;3.00;;;17.60;99.90;;;;;;4939330;29;20196;-79
2023/10/20 11:37:49;;;;;;;3.23;3.03;;;17.50;99.90;;;;;;4935153;29;20314;-78
2023/10/20 11:40:16;;;;;;;3.13;2.93;;;17.50;99.90;;;;;;4929201;29;20201;-79
2023/10/20 11:42:44;;;;;;;2.87;2.70;;;17.40;99.90;;;;;;4931570;29;20544;-78
2023/10/20 11:45:12;;;;;;;3.00;2.80;;;17.40;99.90;;;;;;4933231;29;20196;-78
2023/10/20 11:47:39;;;;;;;2.70;2.60;;;17.40;99.90;;;;;;4933109;29;20215;-80
2023/10/20 11:50:08;;;;;;;2.90;2.70;;;17.40;99.90;;;;;;4940279;29;20222;-81
2023/10/20 11:52:36;;;;;;;2.70;2.60;;;17.50;99.90;;;;;;4933498;29;20233;-83
2023/10/20 11:55:03;;;;;;;2.50;2.40;;;17.50;99.90;;;;;;4938853;29;20204;-81
2023/10/20 11:57:30;;;;;;;2.77;2.50;;;17.50;99.90;;;;;;4938195;29;20227;-86
2023/10/20 11:59:58;;;;;;;2.73;2.60;;;17.60;99.90;;;;;;4934621;29;20238;-86
2023/10/20 12:02:25;;;;;;;2.60;2.50;;;17.70;99.90;;;;;;4930301;29;20212;-85
2023/10/20 12:04:52;;;;;;;2.70;2.60;;;17.80;99.90;;;;;;4933687;29;20255;-83
2023/10/20 12:07:20;;;;;;;2.67;2.57;;;17.80;99.90;;;;;;4939262;29;20713;-83
2023/10/20 12:09:47;;;;;;;5.13;4.90;;;17.80;99.90;;;;;;4939339;29;20209;-85
2023/10/20 12:12:13;;;;;;;7.70;7.30;;;17.80;99.90;;;;;;4938993;29;20238;-80
2023/10/20 12:14:40;;;;;;;7.60;7.20;;;17.80;99.90;;;;;;4941502;29;20671;-81
2023/10/20 12:17:08;;;;;;;8.00;7.50;;;17.80;99.90;;;;;;4931006;29;20274;-81
2023/10/20 12:19:35;;;;;;;6.90;6.60;;;17.80;99.90;;;;;;4939093;29;20591;-81
2023/10/20 12:22:02;;;;;;;7.30;6.80;;;17.80;99.90;;;;;;4934967;29;20192;-80
2023/10/20 12:24:29;;;;;;;6.07;5.77;;;17.90;99.90;;;;;;4939753;29;20568;-81
2023/10/20 12:26:56;;;;;;;6.80;6.50;;;18.10;99.90;;;;;;4930862;29;20226;-80
2023/10/20 12:29:23;;;;;;;7.67;7.27;;;18.30;99.90;;;;;;4939832;29;20262;-79
2023/10/20 12:31:51;;;;;;;7.80;7.40;;;18.60;99.90;;;;;;4929408;29;20706;-80
2023/10/20 12:34:19;;;;;;;7.60;7.20;;;18.70;99.90;;;;;;4937564;29;20205;-80
2023/10/20 12:36:48;;;;;;;7.30;6.90;;;18.90;99.90;;;;;;4929551;29;20218;-78
2023/10/20 12:39:17;;;;;;;9.53;9.00;;;18.90;99.90;;;;;;4932572;29;20229;-80
2023/10/20 12:41:44;;;;;;;6.90;6.60;;;19.00;99.90;;;;;;4939190;29;20205;-80
2023/10/20 12:44:11;;;;;;;7.97;7.57;;;19.00;99.90;;;;;;4934081;29;20665;-81
2023/10/20 12:46:38;;;;;;;7.30;6.90;;;19.00;99.90;;;;;;4936542;29;20650;-80
2023/10/20 12:49:06;;;;;;;8.37;7.97;;;19.00;99.90;;;;;;4932981;29;20591;-82
2023/10/20 12:51:34;;;;;;;8.23;7.83;;;19.10;99.90;;;;;;4933756;29;20248;-82
2023/10/20 12:54:03;;;;;;;7.10;6.70;;;19.10;99.90;;;;;;4935564;29;20233;-86
2023/10/20 12:56:30;;;;;;;9.50;9.00;;;19.20;99.90;;;;;;4935446;29;20238;-82
2023/10/20 12:58:58;;;;;;;8.20;7.80;;;19.20;99.90;;;;;;4931365;29;20208;-86
2023/10/20 13:01:25;;;;;;;8.30;7.90;;;19.20;99.90;;;;;;4939506;29;20198;-84
2023/10/20 13:03:52;;;;;;;8.90;8.30;;;19.20;99.90;;;;;;4942015;29;20202;-85
2023/10/20 13:06:19;;;;;;;8.90;8.50;;;19.00;99.90;;;;;;4935822;29;20617;-83
2023/10/20 13:08:47;;;;;;;8.53;8.13;;;18.90;99.90;;;;;;4941613;29;20238;-82
2023/10/20 13:11:14;;;;;;;8.87;8.37;;;18.70;99.90;;;;;;4938898;29;20444;-81
2023/10/20 13:13:41;;;;;;;8.70;8.30;;;18.50;99.90;;;;;;4937102;29;20210;-82